sensor_id;sensor_type;location;lat;lon;timestamp;P1;durP1;ratioP1;P2;durP2;ratioP2
40959;SDS011;27842;52.272;8.052;2023-02-04T00:01:30;34.57;;;6.80;;
40959;SDS011;27842;52.272;8.052;2023-02-04T00:03:56;32.50;;;6.03;;
40959;SDS011;27842;52.272;8.052;2023-02-04T00:06:21;30.97;;;5.37;;
40959;SDS011;27842;52.272;8.052;2023-02-04T00:08:47;35.17;;;6.83;;
40959;SDS011;27842;52.272;8.052;2023-02-04T00:11:12;29.97;;;5.30;;
40959;SDS011;27842;52.272;8.052;2023-02-04T00:13:38;33.67;;;6.23;;
40959;SDS011;27842;52.272;8.052;2023-02-04T00:16:03;31.13;;;5.43;;
40959;SDS011;27842;52.272;8.052;2023-02-04T00:18:29;35.00;;;5.93;;
40959;SDS011;27842;52.272;8.052;2023-02-04T00:20:55;30.77;;;5.10;;
40959;SDS011;27842;52.272;8.052;2023-02-04T00:23:20;34.67;;;6.13;;
40959;SDS011;27842;52.272;8.052;2023-02-04T00:25:46;32.13;;;4.97;;
40959;SDS011;27842;52.272;8.052;2023-02-04T00:28:11;45.80;;;6.07;;
40959;SDS011;27842;52.272;8.052;2023-02-04T00:30:37;37.23;;;5.60;;
40959;SDS011;27842;52.272;8.052;2023-02-04T00:33:02;39.47;;;6.43;;
40959;SDS011;27842;52.272;8.052;2023-02-04T00:35:28;31.73;;;5.80;;
40959;SDS011;27842;52.272;8.052;2023-02-04T00:37:53;32.67;;;5.07;;
40959;SDS011;27842;52.272;8.052;2023-02-04T00:40:19;29.87;;;5.67;;
40959;SDS011;27842;52.272;8.052;2023-02-04T00:42:45;35.20;;;6.40;;
40959;SDS011;27842;52.272;8.052;2023-02-04T00:45:10;40.40;;;6.70;;
40959;SDS011;27842;52.272;8.052;2023-02-04T00:47:37;32.00;;;5.30;;
40959;SDS011;27842;52.272;8.052;2023-02-04T00:50:03;35.47;;;5.30;;
40959;SDS011;27842;52.272;8.052;2023-02-04T00:52:29;32.00;;;4.93;;
40959;SDS011;27842;52.272;8.052;2023-02-04T00:54:54;31.40;;;5.43;;
40959;SDS011;27842;52.272;8.052;2023-02-04T00:57:20;29.53;;;7.03;;
40959;SDS011;27842;52.272;8.052;2023-02-04T00:59:45;37.47;;;5.83;;
40959;SDS011;27842;52.272;8.052;2023-02-04T01:02:11;27.67;;;4.87;;
40959;SDS011;27842;52.272;8.052;2023-02-04T01:04:37;31.23;;;5.17;;
40959;SDS011;27842;52.272;8.052;2023-02-04T01:07:03;26.90;;;5.23;;
40959;SDS011;27842;52.272;8.052;2023-02-04T01:09:29;28.47;;;5.00;;
40959;SDS011;27842;52.272;8.052;2023-02-04T01:11:54;26.90;;;3.93;;
40959;SDS011;27842;52.272;8.052;2023-02-04T01:14:20;28.00;;;5.27;;
40959;SDS011;27842;52.272;8.052;2023-02-04T01:16:46;30.83;;;5.00;;
40959;SDS011;27842;52.272;8.052;2023-02-04T01:19:11;26.30;;;4.20;;
40959;SDS011;27842;52.272;8.052;2023-02-04T01:21:37;28.00;;;5.60;;
40959;SDS011;27842;52.272;8.052;2023-02-04T01:24:03;29.83;;;4.23;;
40959;SDS011;27842;52.272;8.052;2023-02-04T01:26:28;25.60;;;5.13;;
40959;SDS011;27842;52.272;8.052;2023-02-04T01:28:54;30.80;;;4.93;;
40959;SDS011;27842;52.272;8.052;2023-02-04T01:31:20;30.67;;;5.57;;
40959;SDS011;27842;52.272;8.052;2023-02-04T01:33:45;33.77;;;7.37;;
40959;SDS011;27842;52.272;8.052;2023-02-04T01:36:11;29.37;;;6.07;;
40959;SDS011;27842;52.272;8.052;2023-02-04T01:38:37;29.27;;;5.07;;
40959;SDS011;27842;52.272;8.052;2023-02-04T01:41:03;32.50;;;5.77;;
40959;SDS011;27842;52.272;8.052;2023-02-04T01:43:29;37.03;;;5.17;;
40959;SDS011;27842;52.272;8.052;2023-02-04T01:45:55;29.23;;;5.07;;
40959;SDS011;27842;52.272;8.052;2023-02-04T01:48:21;28.93;;;5.73;;
40959;SDS011;27842;52.272;8.052;2023-02-04T01:50:47;32.43;;;5.80;;
40959;SDS011;27842;52.272;8.052;2023-02-04T01:53:17;25.83;;;4.73;;
40959;SDS011;27842;52.272;8.052;2023-02-04T01:55:50;33.03;;;7.60;;
40959;SDS011;27842;52.272;8.052;2023-02-04T01:58:16;27.93;;;5.17;;
40959;SDS011;27842;52.272;8.052;2023-02-04T02:00:42;31.70;;;5.63;;
40959;SDS011;27842;52.272;8.052;2023-02-04T02:03:08;30.63;;;6.03;;
40959;SDS011;27842;52.272;8.052;2023-02-04T02:05:42;29.45;;;5.47;;
40959;SDS011;27842;52.272;8.052;2023-02-04T02:08:09;33.00;;;5.70;;
40959;SDS011;27842;52.272;8.052;2023-02-04T02:10:37;25.33;;;4.57;;
40959;SDS011;27842;52.272;8.052;2023-02-04T02:13:06;36.55;;;5.75;;
40959;SDS011;27842;52.272;8.052;2023-02-04T02:15:33;30.53;;;5.53;;
40959;SDS011;27842;52.272;8.052;2023-02-04T02:17:59;36.17;;;5.70;;
40959;SDS011;27842;52.272;8.052;2023-02-04T02:20:25;28.33;;;5.00;;
40959;SDS011;27842;52.272;8.052;2023-02-04T02:23:01;39.43;;;6.53;;
40959;SDS011;27842;52.272;8.052;2023-02-04T02:25:47;30.70;;;5.13;;
40959;SDS011;27842;52.272;8.052;2023-02-04T02:28:14;36.80;;;5.60;;
40959;SDS011;27842;52.272;8.052;2023-02-04T02:30:42;36.30;;;6.00;;
40959;SDS011;27842;52.272;8.052;2023-02-04T02:33:09;35.53;;;5.00;;
40959;SDS011;27842;52.272;8.052;2023-02-04T02:35:40;33.67;;;5.77;;
40959;SDS011;27842;52.272;8.052;2023-02-04T02:38:09;34.35;;;5.88;;
40959;SDS011;27842;52.272;8.052;2023-02-04T02:40:36;33.27;;;5.93;;
40959;SDS011;27842;52.272;8.052;2023-02-04T02:43:02;32.83;;;5.57;;
40959;SDS011;27842;52.272;8.052;2023-02-04T02:45:30;29.77;;;4.60;;
40959;SDS011;27842;52.272;8.052;2023-02-04T02:47:58;33.30;;;5.77;;
40959;SDS011;27842;52.272;8.052;2023-02-04T02:50:28;28.37;;;5.03;;
40959;SDS011;27842;52.272;8.052;2023-02-04T02:52:55;29.57;;;5.57;;
40959;SDS011;27842;52.272;8.052;2023-02-04T02:55:24;34.20;;;4.80;;
40959;SDS011;27842;52.272;8.052;2023-02-04T02:57:52;38.57;;;7.00;;
40959;SDS011;27842;52.272;8.052;2023-02-04T03:00:22;33.90;;;5.40;;
40959;SDS011;27842;52.272;8.052;2023-02-04T03:05:24;31.43;;;5.93;;
40959;SDS011;27842;52.272;8.052;2023-02-04T03:07:52;35.43;;;6.43;;
40959;SDS011;27842;52.272;8.052;2023-02-04T03:10:18;33.07;;;6.47;;
40959;SDS011;27842;52.272;8.052;2023-02-04T03:12:44;32.00;;;6.33;;
40959;SDS011;27842;52.272;8.052;2023-02-04T03:15:10;36.57;;;6.53;;
40959;SDS011;27842;52.272;8.052;2023-02-04T03:17:36;45.80;;;8.00;;
40959;SDS011;27842;52.272;8.052;2023-02-04T03:20:02;29.50;;;5.97;;
40959;SDS011;27842;52.272;8.052;2023-02-04T03:22:28;34.03;;;6.43;;
40959;SDS011;27842;52.272;8.052;2023-02-04T03:24:54;36.23;;;6.57;;
40959;SDS011;27842;52.272;8.052;2023-02-04T03:27:22;33.43;;;6.60;;
40959;SDS011;27842;52.272;8.052;2023-02-04T03:29:49;31.63;;;5.83;;
40959;SDS011;27842;52.272;8.052;2023-02-04T03:32:14;34.73;;;7.27;;
40959;SDS011;27842;52.272;8.052;2023-02-04T03:34:40;32.73;;;6.20;;
40959;SDS011;27842;52.272;8.052;2023-02-04T03:37:06;35.80;;;5.47;;
40959;SDS011;27842;52.272;8.052;2023-02-04T03:39:31;30.43;;;5.07;;
40959;SDS011;27842;52.272;8.052;2023-02-04T03:41:57;34.40;;;6.00;;
40959;SDS011;27842;52.272;8.052;2023-02-04T03:44:22;33.30;;;6.03;;
40959;SDS011;27842;52.272;8.052;2023-02-04T03:46:50;29.00;;;4.70;;
40959;SDS011;27842;52.272;8.052;2023-02-04T03:49:19;30.88;;;5.10;;
40959;SDS011;27842;52.272;8.052;2023-02-04T03:51:45;34.20;;;7.10;;
40959;SDS011;27842;52.272;8.052;2023-02-04T03:54:11;36.93;;;6.63;;
40959;SDS011;27842;52.272;8.052;2023-02-04T03:56:36;31.43;;;5.03;;
40959;SDS011;27842;52.272;8.052;2023-02-04T03:59:02;32.90;;;4.70;;
40959;SDS011;27842;52.272;8.052;2023-02-04T04:01:27;30.93;;;6.43;;
40959;SDS011;27842;52.272;8.052;2023-02-04T04:03:53;34.43;;;6.13;;
40959;SDS011;27842;52.272;8.052;2023-02-04T04:06:18;29.07;;;5.13;;
40959;SDS011;27842;52.272;8.052;2023-02-04T04:08:44;33.77;;;5.53;;
40959;SDS011;27842;52.272;8.052;2023-02-04T04:11:10;39.10;;;5.57;;
40959;SDS011;27842;52.272;8.052;2023-02-04T04:13:35;32.90;;;5.77;;
40959;SDS011;27842;52.272;8.052;2023-02-04T04:16:01;22.30;;;5.03;;
40959;SDS011;27842;52.272;8.052;2023-02-04T04:18:28;37.83;;;6.13;;
40959;SDS011;27842;52.272;8.052;2023-02-04T04:20:55;28.67;;;4.93;;
40959;SDS011;27842;52.272;8.052;2023-02-04T04:23:20;26.43;;;5.00;;
40959;SDS011;27842;52.272;8.052;2023-02-04T04:25:46;34.67;;;5.23;;
40959;SDS011;27842;52.272;8.052;2023-02-04T04:28:11;27.00;;;6.57;;
40959;SDS011;27842;52.272;8.052;2023-02-04T04:30:37;27.70;;;5.57;;
40959;SDS011;27842;52.272;8.052;2023-02-04T04:33:02;37.17;;;5.40;;
40959;SDS011;27842;52.272;8.052;2023-02-04T04:35:28;32.97;;;5.30;;
40959;SDS011;27842;52.272;8.052;2023-02-04T04:37:53;30.60;;;5.97;;
40959;SDS011;27842;52.272;8.052;2023-02-04T04:40:19;33.97;;;5.50;;
40959;SDS011;27842;52.272;8.052;2023-02-04T04:42:44;29.23;;;5.07;;
40959;SDS011;27842;52.272;8.052;2023-02-04T04:45:10;30.07;;;4.90;;
40959;SDS011;27842;52.272;8.052;2023-02-04T04:47:36;26.83;;;5.37;;
40959;SDS011;27842;52.272;8.052;2023-02-04T04:50:02;31.70;;;4.77;;
40959;SDS011;27842;52.272;8.052;2023-02-04T04:52:28;31.30;;;5.13;;
40959;SDS011;27842;52.272;8.052;2023-02-04T04:54:53;21.30;;;3.67;;
40959;SDS011;27842;52.272;8.052;2023-02-04T04:57:19;22.43;;;3.50;;
40959;SDS011;27842;52.272;8.052;2023-02-04T04:59:45;23.53;;;3.53;;
40959;SDS011;27842;52.272;8.052;2023-02-04T05:02:10;20.27;;;3.03;;
40959;SDS011;27842;52.272;8.052;2023-02-04T05:04:36;19.63;;;3.80;;
40959;SDS011;27842;52.272;8.052;2023-02-04T05:07:01;16.93;;;3.33;;
40959;SDS011;27842;52.272;8.052;2023-02-04T05:09:27;16.70;;;2.50;;
40959;SDS011;27842;52.272;8.052;2023-02-04T05:11:52;17.73;;;2.40;;
40959;SDS011;27842;52.272;8.052;2023-02-04T05:14:18;14.60;;;2.33;;
40959;SDS011;27842;52.272;8.052;2023-02-04T05:16:44;15.20;;;2.87;;
40959;SDS011;27842;52.272;8.052;2023-02-04T05:19:09;12.87;;;2.43;;
40959;SDS011;27842;52.272;8.052;2023-02-04T05:21:35;13.07;;;1.97;;
40959;SDS011;27842;52.272;8.052;2023-02-04T05:24:00;12.57;;;1.93;;
40959;SDS011;27842;52.272;8.052;2023-02-04T05:26:26;16.37;;;2.33;;
40959;SDS011;27842;52.272;8.052;2023-02-04T05:28:51;13.70;;;2.23;;
40959;SDS011;27842;52.272;8.052;2023-02-04T05:31:17;13.77;;;1.80;;
40959;SDS011;27842;52.272;8.052;2023-02-04T05:33:42;10.53;;;1.80;;
40959;SDS011;27842;52.272;8.052;2023-02-04T05:36:08;10.70;;;2.00;;
40959;SDS011;27842;52.272;8.052;2023-02-04T05:38:33;7.90;;;1.80;;
40959;SDS011;27842;52.272;8.052;2023-02-04T05:40:59;9.33;;;1.97;;
40959;SDS011;27842;52.272;8.052;2023-02-04T05:43:24;11.77;;;1.90;;
40959;SDS011;27842;52.272;8.052;2023-02-04T05:45:50;9.93;;;1.70;;
40959;SDS011;27842;52.272;8.052;2023-02-04T05:48:15;17.93;;;2.30;;
40959;SDS011;27842;52.272;8.052;2023-02-04T05:50:41;14.53;;;2.27;;
40959;SDS011;27842;52.272;8.052;2023-02-04T05:53:07;11.63;;;1.83;;
40959;SDS011;27842;52.272;8.052;2023-02-04T05:55:33;12.83;;;2.67;;
40959;SDS011;27842;52.272;8.052;2023-02-04T05:57:58;11.60;;;2.10;;
40959;SDS011;27842;52.272;8.052;2023-02-04T06:00:24;12.80;;;2.07;;
40959;SDS011;27842;52.272;8.052;2023-02-04T06:02:50;11.77;;;1.93;;
40959;SDS011;27842;52.272;8.052;2023-02-04T06:05:16;9.83;;;1.73;;
40959;SDS011;27842;52.272;8.052;2023-02-04T06:07:42;11.17;;;2.10;;
40959;SDS011;27842;52.272;8.052;2023-02-04T06:10:08;12.70;;;2.20;;
40959;SDS011;27842;52.272;8.052;2023-02-04T06:12:34;9.53;;;1.93;;
40959;SDS011;27842;52.272;8.052;2023-02-04T06:15:00;10.20;;;2.10;;
40959;SDS011;27842;52.272;8.052;2023-02-04T06:17:26;17.00;;;2.30;;
40959;SDS011;27842;52.272;8.052;2023-02-04T06:19:51;12.43;;;2.40;;
40959;SDS011;27842;52.272;8.052;2023-02-04T06:22:17;10.87;;;1.97;;
40959;SDS011;27842;52.272;8.052;2023-02-04T06:24:42;10.63;;;1.90;;
40959;SDS011;27842;52.272;8.052;2023-02-04T06:27:08;13.30;;;2.07;;
40959;SDS011;27842;52.272;8.052;2023-02-04T06:29:33;9.63;;;1.73;;
40959;SDS011;27842;52.272;8.052;2023-02-04T06:31:59;11.97;;;2.00;;
40959;SDS011;27842;52.272;8.052;2023-02-04T06:34:25;10.80;;;1.80;;
40959;SDS011;27842;52.272;8.052;2023-02-04T06:36:50;16.00;;;2.70;;
40959;SDS011;27842;52.272;8.052;2023-02-04T06:39:16;11.77;;;1.97;;
40959;SDS011;27842;52.272;8.052;2023-02-04T06:41:41;9.50;;;2.37;;
40959;SDS011;27842;52.272;8.052;2023-02-04T06:44:07;13.57;;;1.87;;
40959;SDS011;27842;52.272;8.052;2023-02-04T06:46:32;16.33;;;2.57;;
40959;SDS011;27842;52.272;8.052;2023-02-04T06:48:58;12.93;;;2.40;;
40959;SDS011;27842;52.272;8.052;2023-02-04T06:51:23;11.30;;;2.23;;
40959;SDS011;27842;52.272;8.052;2023-02-04T06:53:49;11.17;;;2.23;;
40959;SDS011;27842;52.272;8.052;2023-02-04T06:56:16;15.20;;;2.00;;
40959;SDS011;27842;52.272;8.052;2023-02-04T06:58:42;11.80;;;2.07;;
40959;SDS011;27842;52.272;8.052;2023-02-04T07:01:07;13.27;;;2.50;;
40959;SDS011;27842;52.272;8.052;2023-02-04T07:03:33;13.10;;;2.37;;
40959;SDS011;27842;52.272;8.052;2023-02-04T07:05:58;9.70;;;1.83;;
40959;SDS011;27842;52.272;8.052;2023-02-04T07:08:24;16.87;;;2.73;;
40959;SDS011;27842;52.272;8.052;2023-02-04T07:10:49;12.47;;;1.93;;
40959;SDS011;27842;52.272;8.052;2023-02-04T07:13:15;14.37;;;1.97;;
40959;SDS011;27842;52.272;8.052;2023-02-04T07:15:41;14.50;;;2.57;;
40959;SDS011;27842;52.272;8.052;2023-02-04T07:18:06;15.70;;;3.00;;
40959;SDS011;27842;52.272;8.052;2023-02-04T07:20:32;23.60;;;8.03;;
40959;SDS011;27842;52.272;8.052;2023-02-04T07:22:57;13.07;;;2.20;;
40959;SDS011;27842;52.272;8.052;2023-02-04T07:25:23;11.87;;;2.00;;
40959;SDS011;27842;52.272;8.052;2023-02-04T07:27:49;15.50;;;2.33;;
40959;SDS011;27842;52.272;8.052;2023-02-04T07:30:14;13.47;;;2.20;;
40959;SDS011;27842;52.272;8.052;2023-02-04T07:32:40;8.83;;;1.90;;
40959;SDS011;27842;52.272;8.052;2023-02-04T07:35:06;14.03;;;2.57;;
40959;SDS011;27842;52.272;8.052;2023-02-04T07:37:31;14.83;;;2.53;;
40959;SDS011;27842;52.272;8.052;2023-02-04T07:39:57;13.00;;;2.40;;
40959;SDS011;27842;52.272;8.052;2023-02-04T07:42:22;12.67;;;2.40;;
40959;SDS011;27842;52.272;8.052;2023-02-04T07:44:48;9.70;;;2.40;;
40959;SDS011;27842;52.272;8.052;2023-02-04T07:47:14;15.73;;;3.03;;
40959;SDS011;27842;52.272;8.052;2023-02-04T07:49:39;8.57;;;2.40;;
40959;SDS011;27842;52.272;8.052;2023-02-04T07:52:05;11.40;;;2.63;;
40959;SDS011;27842;52.272;8.052;2023-02-04T07:54:30;24.63;;;8.27;;
40959;SDS011;27842;52.272;8.052;2023-02-04T07:56:56;14.67;;;3.50;;
40959;SDS011;27842;52.272;8.052;2023-02-04T07:59:21;9.30;;;2.50;;
40959;SDS011;27842;52.272;8.052;2023-02-04T08:01:47;14.80;;;3.03;;
40959;SDS011;27842;52.272;8.052;2023-02-04T08:04:13;12.17;;;2.80;;
40959;SDS011;27842;52.272;8.052;2023-02-04T08:06:39;10.30;;;2.37;;
40959;SDS011;27842;52.272;8.052;2023-02-04T08:09:04;11.23;;;2.53;;
40959;SDS011;27842;52.272;8.052;2023-02-04T08:11:30;12.63;;;2.60;;
40959;SDS011;27842;52.272;8.052;2023-02-04T08:13:55;11.30;;;2.80;;
40959;SDS011;27842;52.272;8.052;2023-02-04T08:16:21;16.43;;;3.70;;
40959;SDS011;27842;52.272;8.052;2023-02-04T08:18:47;14.10;;;2.73;;
40959;SDS011;27842;52.272;8.052;2023-02-04T08:21:12;12.37;;;2.57;;
40959;SDS011;27842;52.272;8.052;2023-02-04T08:23:38;13.00;;;2.70;;
40959;SDS011;27842;52.272;8.052;2023-02-04T08:26:06;13.07;;;3.00;;
40959;SDS011;27842;52.272;8.052;2023-02-04T08:28:33;12.57;;;2.80;;
40959;SDS011;27842;52.272;8.052;2023-02-04T08:30:58;11.10;;;2.63;;
40959;SDS011;27842;52.272;8.052;2023-02-04T08:33:24;11.47;;;2.60;;
40959;SDS011;27842;52.272;8.052;2023-02-04T08:35:49;9.87;;;2.20;;
40959;SDS011;27842;52.272;8.052;2023-02-04T08:38:16;9.47;;;2.23;;
40959;SDS011;27842;52.272;8.052;2023-02-04T08:40:41;10.57;;;2.20;;
40959;SDS011;27842;52.272;8.052;2023-02-04T08:43:07;9.90;;;2.50;;
40959;SDS011;27842;52.272;8.052;2023-02-04T08:45:35;9.17;;;2.30;;
40959;SDS011;27842;52.272;8.052;2023-02-04T08:48:01;9.52;;;2.20;;
40959;SDS011;27842;52.272;8.052;2023-02-04T08:50:26;12.43;;;2.73;;
40959;SDS011;27842;52.272;8.052;2023-02-04T08:52:54;13.07;;;2.50;;
40959;SDS011;27842;52.272;8.052;2023-02-04T08:55:20;9.80;;;2.60;;
40959;SDS011;27842;52.272;8.052;2023-02-04T08:57:46;13.20;;;2.43;;
40959;SDS011;27842;52.272;8.052;2023-02-04T09:00:11;10.50;;;2.60;;
40959;SDS011;27842;52.272;8.052;2023-02-04T09:02:37;9.93;;;2.60;;
40959;SDS011;27842;52.272;8.052;2023-02-04T09:05:03;8.13;;;2.27;;
40959;SDS011;27842;52.272;8.052;2023-02-04T09:07:28;11.13;;;2.13;;
40959;SDS011;27842;52.272;8.052;2023-02-04T09:09:54;9.27;;;3.00;;
40959;SDS011;27842;52.272;8.052;2023-02-04T09:12:19;13.73;;;2.63;;
40959;SDS011;27842;52.272;8.052;2023-02-04T09:14:45;10.87;;;2.60;;
40959;SDS011;27842;52.272;8.052;2023-02-04T09:17:11;9.47;;;2.33;;
40959;SDS011;27842;52.272;8.052;2023-02-04T09:19:36;10.37;;;2.50;;
40959;SDS011;27842;52.272;8.052;2023-02-04T09:22:02;12.70;;;3.17;;
40959;SDS011;27842;52.272;8.052;2023-02-04T09:24:27;9.87;;;2.40;;
40959;SDS011;27842;52.272;8.052;2023-02-04T09:26:53;9.73;;;2.50;;
40959;SDS011;27842;52.272;8.052;2023-02-04T09:29:19;7.90;;;2.30;;
40959;SDS011;27842;52.272;8.052;2023-02-04T09:31:44;8.57;;;2.40;;
40959;SDS011;27842;52.272;8.052;2023-02-04T09:34:10;8.07;;;2.47;;
40959;SDS011;27842;52.272;8.052;2023-02-04T09:36:35;7.67;;;2.40;;
40959;SDS011;27842;52.272;8.052;2023-02-04T09:39:03;9.80;;;2.90;;
40959;SDS011;27842;52.272;8.052;2023-02-04T09:41:30;11.27;;;3.00;;
40959;SDS011;27842;52.272;8.052;2023-02-04T09:43:57;7.00;;;2.40;;
40959;SDS011;27842;52.272;8.052;2023-02-04T09:46:26;9.47;;;2.40;;
40959;SDS011;27842;52.272;8.052;2023-02-04T09:48:53;8.50;;;2.33;;
40959;SDS011;27842;52.272;8.052;2023-02-04T09:51:20;11.70;;;3.07;;
40959;SDS011;27842;52.272;8.052;2023-02-04T09:53:48;13.60;;;2.70;;
40959;SDS011;27842;52.272;8.052;2023-02-04T09:56:18;7.32;;;2.60;;
40959;SDS011;27842;52.272;8.052;2023-02-04T09:58:44;9.07;;;2.47;;
40959;SDS011;27842;52.272;8.052;2023-02-04T10:01:11;9.40;;;2.73;;
40959;SDS011;27842;52.272;8.052;2023-02-04T10:03:40;8.93;;;2.50;;
40959;SDS011;27842;52.272;8.052;2023-02-04T10:06:14;7.40;;;2.40;;
40959;SDS011;27842;52.272;8.052;2023-02-04T10:08:41;7.27;;;2.43;;
40959;SDS011;27842;52.272;8.052;2023-02-04T10:11:08;8.67;;;2.37;;
40959;SDS011;27842;52.272;8.052;2023-02-04T10:13:38;6.80;;;2.60;;
40959;SDS011;27842;52.272;8.052;2023-02-04T10:16:12;7.50;;;2.47;;
40959;SDS011;27842;52.272;8.052;2023-02-04T10:18:39;6.87;;;2.40;;
40959;SDS011;27842;52.272;8.052;2023-02-04T10:23:38;9.83;;;2.47;;
40959;SDS011;27842;52.272;8.052;2023-02-04T10:26:04;8.20;;;2.57;;
40959;SDS011;27842;52.272;8.052;2023-02-04T10:28:35;5.70;;;2.17;;
40959;SDS011;27842;52.272;8.052;2023-02-04T10:31:01;7.27;;;2.30;;
40959;SDS011;27842;52.272;8.052;2023-02-04T10:33:27;10.63;;;2.57;;
40959;SDS011;27842;52.272;8.052;2023-02-04T10:35:54;10.13;;;2.30;;
40959;SDS011;27842;52.272;8.052;2023-02-04T10:38:20;5.97;;;2.20;;
40959;SDS011;27842;52.272;8.052;2023-02-04T10:40:47;4.83;;;2.30;;
40959;SDS011;27842;52.272;8.052;2023-02-04T10:43:17;7.23;;;2.20;;
40959;SDS011;27842;52.272;8.052;2023-02-04T10:45:47;7.77;;;2.57;;
40959;SDS011;27842;52.272;8.052;2023-02-04T10:48:20;5.80;;;2.40;;
40959;SDS011;27842;52.272;8.052;2023-02-04T10:50:46;7.90;;;2.53;;
40959;SDS011;27842;52.272;8.052;2023-02-04T10:53:17;5.33;;;2.30;;
40959;SDS011;27842;52.272;8.052;2023-02-04T10:56:03;7.23;;;2.17;;
40959;SDS011;27842;52.272;8.052;2023-02-04T10:58:33;7.10;;;2.20;;
40959;SDS011;27842;52.272;8.052;2023-02-04T11:00:59;6.70;;;2.10;;
40959;SDS011;27842;52.272;8.052;2023-02-04T11:03:26;4.90;;;2.20;;
40959;SDS011;27842;52.272;8.052;2023-02-04T11:08:25;9.50;;;2.80;;
40959;SDS011;27842;52.272;8.052;2023-02-04T11:10:59;8.43;;;2.47;;
40959;SDS011;27842;52.272;8.052;2023-02-04T11:13:39;10.17;;;2.70;;
40959;SDS011;27842;52.272;8.052;2023-02-04T11:16:11;9.57;;;2.60;;
40959;SDS011;27842;52.272;8.052;2023-02-04T11:18:52;7.43;;;2.70;;
40959;SDS011;27842;52.272;8.052;2023-02-04T11:26:47;10.57;;;2.40;;
40959;SDS011;27842;52.272;8.052;2023-02-04T11:39:25;6.53;;;2.37;;
40959;SDS011;27842;52.272;8.052;2023-02-04T11:42:04;5.17;;;2.23;;
40959;SDS011;27842;52.272;8.052;2023-02-04T11:44:31;7.63;;;2.77;;
40959;SDS011;27842;52.272;8.052;2023-02-04T11:46:57;6.23;;;2.23;;
40959;SDS011;27842;52.272;8.052;2023-02-04T11:49:24;10.90;;;3.60;;
40959;SDS011;27842;52.272;8.052;2023-02-04T11:52:02;6.40;;;2.40;;
40959;SDS011;27842;52.272;8.052;2023-02-04T11:54:32;7.40;;;2.63;;
40959;SDS011;27842;52.272;8.052;2023-02-04T11:56:59;10.20;;;2.70;;
40959;SDS011;27842;52.272;8.052;2023-02-04T11:59:25;6.70;;;2.70;;
40959;SDS011;27842;52.272;8.052;2023-02-04T12:01:51;5.47;;;2.43;;
40959;SDS011;27842;52.272;8.052;2023-02-04T12:04:31;8.07;;;2.50;;
40959;SDS011;27842;52.272;8.052;2023-02-04T12:06:57;6.37;;;2.77;;
40959;SDS011;27842;52.272;8.052;2023-02-04T12:09:25;8.70;;;2.63;;
40959;SDS011;27842;52.272;8.052;2023-02-04T12:14:34;6.17;;;2.40;;
40959;SDS011;27842;52.272;8.052;2023-02-04T12:17:20;7.33;;;2.50;;
40959;SDS011;27842;52.272;8.052;2023-02-04T12:19:45;7.13;;;2.30;;
40959;SDS011;27842;52.272;8.052;2023-02-04T12:22:11;7.20;;;2.43;;
40959;SDS011;27842;52.272;8.052;2023-02-04T12:24:38;6.87;;;2.20;;
40959;SDS011;27842;52.272;8.052;2023-02-04T12:27:04;6.70;;;2.50;;
40959;SDS011;27842;52.272;8.052;2023-02-04T12:29:29;10.77;;;3.10;;
40959;SDS011;27842;52.272;8.052;2023-02-04T12:31:55;8.23;;;3.10;;
40959;SDS011;27842;52.272;8.052;2023-02-04T12:34:20;6.60;;;2.50;;
40959;SDS011;27842;52.272;8.052;2023-02-04T12:36:46;7.70;;;2.70;;
40959;SDS011;27842;52.272;8.052;2023-02-04T12:39:11;9.53;;;2.43;;
40959;SDS011;27842;52.272;8.052;2023-02-04T12:41:37;7.40;;;2.50;;
40959;SDS011;27842;52.272;8.052;2023-02-04T12:44:02;8.07;;;2.50;;
40959;SDS011;27842;52.272;8.052;2023-02-04T12:46:28;7.43;;;2.70;;
40959;SDS011;27842;52.272;8.052;2023-02-04T12:48:54;7.20;;;3.07;;
40959;SDS011;27842;52.272;8.052;2023-02-04T12:51:20;8.30;;;2.70;;
40959;SDS011;27842;52.272;8.052;2023-02-04T12:53:46;7.80;;;2.60;;
40959;SDS011;27842;52.272;8.052;2023-02-04T12:56:13;6.50;;;2.50;;
40959;SDS011;27842;52.272;8.052;2023-02-04T12:58:39;11.50;;;3.07;;
40959;SDS011;27842;52.272;8.052;2023-02-04T13:01:05;8.33;;;2.53;;
40959;SDS011;27842;52.272;8.052;2023-02-04T13:03:30;7.93;;;3.03;;
40959;SDS011;27842;52.272;8.052;2023-02-04T13:05:56;7.20;;;2.53;;
40959;SDS011;27842;52.272;8.052;2023-02-04T13:08:22;7.10;;;2.57;;
40959;SDS011;27842;52.272;8.052;2023-02-04T13:10:48;8.13;;;2.60;;
40959;SDS011;27842;52.272;8.052;2023-02-04T13:13:16;7.53;;;2.60;;
40959;SDS011;27842;52.272;8.052;2023-02-04T13:15:48;8.23;;;2.60;;
40959;SDS011;27842;52.272;8.052;2023-02-04T13:18:14;8.13;;;2.50;;
40959;SDS011;27842;52.272;8.052;2023-02-04T13:20:40;10.50;;;2.90;;
40959;SDS011;27842;52.272;8.052;2023-02-04T13:23:06;5.63;;;2.33;;
40959;SDS011;27842;52.272;8.052;2023-02-04T13:25:32;6.63;;;2.50;;
40959;SDS011;27842;52.272;8.052;2023-02-04T13:27:57;7.63;;;2.20;;
40959;SDS011;27842;52.272;8.052;2023-02-04T13:30:24;5.70;;;2.10;;
40959;SDS011;27842;52.272;8.052;2023-02-04T13:32:50;6.40;;;2.23;;
40959;SDS011;27842;52.272;8.052;2023-02-04T13:35:15;8.40;;;2.50;;
40959;SDS011;27842;52.272;8.052;2023-02-04T13:37:41;18.37;;;5.87;;
40959;SDS011;27842;52.272;8.052;2023-02-04T13:40:07;6.53;;;2.40;;
40959;SDS011;27842;52.272;8.052;2023-02-04T13:42:35;6.27;;;2.10;;
40959;SDS011;27842;52.272;8.052;2023-02-04T13:45:03;7.00;;;2.50;;
40959;SDS011;27842;52.272;8.052;2023-02-04T13:47:31;7.53;;;2.13;;
40959;SDS011;27842;52.272;8.052;2023-02-04T13:49:57;7.43;;;2.50;;
40959;SDS011;27842;52.272;8.052;2023-02-04T13:52:22;4.63;;;2.10;;
40959;SDS011;27842;52.272;8.052;2023-02-04T13:54:48;7.70;;;2.27;;
40959;SDS011;27842;52.272;8.052;2023-02-04T13:57:13;7.17;;;2.70;;
40959;SDS011;27842;52.272;8.052;2023-02-04T13:59:40;6.03;;;2.30;;
40959;SDS011;27842;52.272;8.052;2023-02-04T14:02:07;4.93;;;2.20;;
40959;SDS011;27842;52.272;8.052;2023-02-04T14:04:32;5.40;;;2.20;;
40959;SDS011;27842;52.272;8.052;2023-02-04T14:06:58;8.87;;;2.90;;
40959;SDS011;27842;52.272;8.052;2023-02-04T14:09:23;6.80;;;2.10;;
40959;SDS011;27842;52.272;8.052;2023-02-04T14:11:49;5.97;;;2.10;;
40959;SDS011;27842;52.272;8.052;2023-02-04T14:14:15;7.77;;;2.40;;
40959;SDS011;27842;52.272;8.052;2023-02-04T14:16:41;6.93;;;2.30;;
40959;SDS011;27842;52.272;8.052;2023-02-04T14:19:06;12.13;;;2.53;;
40959;SDS011;27842;52.272;8.052;2023-02-04T14:21:33;8.70;;;2.40;;
40959;SDS011;27842;52.272;8.052;2023-02-04T14:23:58;6.30;;;2.23;;
40959;SDS011;27842;52.272;8.052;2023-02-04T14:26:24;6.40;;;2.30;;
40959;SDS011;27842;52.272;8.052;2023-02-04T14:28:50;6.57;;;2.30;;
40959;SDS011;27842;52.272;8.052;2023-02-04T14:31:18;4.17;;;2.03;;
40959;SDS011;27842;52.272;8.052;2023-02-04T14:33:44;4.97;;;2.00;;
40959;SDS011;27842;52.272;8.052;2023-02-04T14:36:09;7.77;;;2.40;;
40959;SDS011;27842;52.272;8.052;2023-02-04T14:38:35;7.57;;;2.13;;
40959;SDS011;27842;52.272;8.052;2023-02-04T14:41:03;7.23;;;2.70;;
40959;SDS011;27842;52.272;8.052;2023-02-04T14:43:28;9.90;;;2.50;;
40959;SDS011;27842;52.272;8.052;2023-02-04T14:46:00;5.50;;;2.30;;
40959;SDS011;27842;52.272;8.052;2023-02-04T14:48:25;4.80;;;2.53;;
40959;SDS011;27842;52.272;8.052;2023-02-04T14:50:51;10.10;;;2.60;;
40959;SDS011;27842;52.272;8.052;2023-02-04T14:53:16;4.00;;;2.03;;
40959;SDS011;27842;52.272;8.052;2023-02-04T14:55:42;6.67;;;2.40;;
40959;SDS011;27842;52.272;8.052;2023-02-04T14:58:07;9.30;;;2.60;;
40959;SDS011;27842;52.272;8.052;2023-02-04T15:00:33;7.90;;;2.30;;
40959;SDS011;27842;52.272;8.052;2023-02-04T15:02:58;5.33;;;2.20;;